Impacts TAF Board
For situational awareness. Not to be used for flight planning purposes.
IDs:

KGRK - Killeen-Ft Hood Rgnl, TX, US

Issued at 0800 UTC 24 Aug 2019
Updated at 1526 UTC 24 Aug 2019
Potential Impact None Slight Moderate High
Time<<25/04Z 25/05Z 25/06Z 25/07Z 25/08Z 25/09Z 25/10Z 25/11Z 25/12Z 25/13Z 25/14Z 25/15Z 25/16Z>>
Type PRVL PRVL PRVL PRVL PRVL PRVL PRVL PRVL PRVL PRVL
VIS >6 >6 >6 >6 >6 >6 >6 >6 >6 >6
CIG -- -- -- -- -- -- -- -- -- --
Cover SCT SCT SCT SCT SCT SCT SCT SCT SCT SCT
FltCat VFR VFR VFR VFR VFR VFR VFR VFR VFR VFR
WX -- -- -- -- -- -- -- -- -- --
WDir 130 130 130 130 180 180 180 180 180 180
WSpd 9 9 9 9 6 6 6 6 6 6
WGst -- -- -- -- -- -- -- -- -- --
Raw TAF
TAF KGRK 240800Z 2408/2514 16006KT 9999 SCT020 QNH2992INS
  TEMPO 2411/2413 BKN014
  BECMG 2414/2415 18006KT 9999 FEW050 QNH2985INS
  BECMG 2502/2503 13009KT 9999 SCT050 QNH2987INS
  BECMG 2508/2509 18006KT 9999 SCT015 QNH2988INS TX36/2421Z TN23/2411Z


METAR Board
For situational awareness. Not to be used for flight planning purposes.